sensor_id;sensor_type;location;lat;lon;timestamp;P1;durP1;ratioP1;P2;durP2;ratioP2
19869;SDS011;10097;50.862;4.696;2023-04-15T00:00:29;15.37;;;5.93;;
19869;SDS011;10097;50.862;4.696;2023-04-15T00:02:54;14.20;;;5.33;;
19869;SDS011;10097;50.862;4.696;2023-04-15T00:05:20;10.93;;;4.47;;
19869;SDS011;10097;50.862;4.696;2023-04-15T00:07:47;12.60;;;4.13;;
19869;SDS011;10097;50.862;4.696;2023-04-15T00:10:13;14.40;;;3.63;;
19869;SDS011;10097;50.862;4.696;2023-04-15T00:12:38;9.93;;;3.63;;
19869;SDS011;10097;50.862;4.696;2023-04-15T00:15:05;11.40;;;4.73;;
19869;SDS011;10097;50.862;4.696;2023-04-15T00:17:33;13.23;;;4.70;;
19869;SDS011;10097;50.862;4.696;2023-04-15T00:19:59;13.57;;;4.00;;
19869;SDS011;10097;50.862;4.696;2023-04-15T00:22:25;10.50;;;3.60;;
19869;SDS011;10097;50.862;4.696;2023-04-15T00:24:54;11.43;;;3.50;;
19869;SDS011;10097;50.862;4.696;2023-04-15T00:27:20;11.67;;;3.53;;
19869;SDS011;10097;50.862;4.696;2023-04-15T00:29:46;8.80;;;3.20;;
19869;SDS011;10097;50.862;4.696;2023-04-15T00:32:11;9.00;;;3.13;;
19869;SDS011;10097;50.862;4.696;2023-04-15T00:34:37;7.10;;;2.80;;
19869;SDS011;10097;50.862;4.696;2023-04-15T00:37:03;10.50;;;3.00;;
19869;SDS011;10097;50.862;4.696;2023-04-15T00:39:28;7.87;;;2.70;;
19869;SDS011;10097;50.862;4.696;2023-04-15T00:41:54;12.13;;;3.00;;
19869;SDS011;10097;50.862;4.696;2023-04-15T00:44:21;7.67;;;2.50;;
19869;SDS011;10097;50.862;4.696;2023-04-15T00:46:47;8.13;;;2.70;;
19869;SDS011;10097;50.862;4.696;2023-04-15T00:49:15;9.07;;;2.70;;
19869;SDS011;10097;50.862;4.696;2023-04-15T00:51:43;9.97;;;2.80;;
19869;SDS011;10097;50.862;4.696;2023-04-15T00:54:08;8.93;;;2.80;;
19869;SDS011;10097;50.862;4.696;2023-04-15T00:56:36;8.47;;;2.80;;
19869;SDS011;10097;50.862;4.696;2023-04-15T00:59:03;6.93;;;2.63;;
19869;SDS011;10097;50.862;4.696;2023-04-15T01:01:30;8.20;;;3.00;;
19869;SDS011;10097;50.862;4.696;2023-04-15T01:03:57;7.43;;;2.50;;
19869;SDS011;10097;50.862;4.696;2023-04-15T01:06:23;7.03;;;3.20;;
19869;SDS011;10097;50.862;4.696;2023-04-15T01:08:49;11.20;;;3.33;;
19869;SDS011;10097;50.862;4.696;2023-04-15T01:11:15;10.37;;;3.13;;
19869;SDS011;10097;50.862;4.696;2023-04-15T01:13:41;8.13;;;3.00;;
19869;SDS011;10097;50.862;4.696;2023-04-15T01:16:07;9.03;;;3.23;;
19869;SDS011;10097;50.862;4.696;2023-04-15T01:18:33;7.23;;;2.77;;
19869;SDS011;10097;50.862;4.696;2023-04-15T01:21:02;8.97;;;2.97;;
19869;SDS011;10097;50.862;4.696;2023-04-15T01:23:29;14.53;;;2.90;;
19869;SDS011;10097;50.862;4.696;2023-04-15T01:25:56;10.07;;;3.07;;
19869;SDS011;10097;50.862;4.696;2023-04-15T01:28:23;9.97;;;3.27;;
19869;SDS011;10097;50.862;4.696;2023-04-15T01:30:49;10.17;;;2.97;;
19869;SDS011;10097;50.862;4.696;2023-04-15T01:33:15;12.33;;;3.23;;
19869;SDS011;10097;50.862;4.696;2023-04-15T01:35:41;7.20;;;2.87;;
19869;SDS011;10097;50.862;4.696;2023-04-15T01:38:08;8.90;;;3.10;;
19869;SDS011;10097;50.862;4.696;2023-04-15T01:40:35;14.67;;;4.23;;
19869;SDS011;10097;50.862;4.696;2023-04-15T01:43:01;7.77;;;3.23;;
19869;SDS011;10097;50.862;4.696;2023-04-15T01:45:27;10.50;;;3.97;;
19869;SDS011;10097;50.862;4.696;2023-04-15T01:47:53;10.73;;;3.60;;
19869;SDS011;10097;50.862;4.696;2023-04-15T01:50:19;8.63;;;4.10;;
19869;SDS011;10097;50.862;4.696;2023-04-15T01:52:45;9.87;;;3.67;;
19869;SDS011;10097;50.862;4.696;2023-04-15T01:55:12;11.87;;;3.60;;
19869;SDS011;10097;50.862;4.696;2023-04-15T01:57:38;10.27;;;3.67;;
19869;SDS011;10097;50.862;4.696;2023-04-15T02:00:05;10.17;;;3.93;;
19869;SDS011;10097;50.862;4.696;2023-04-15T02:02:32;12.07;;;3.73;;
19869;SDS011;10097;50.862;4.696;2023-04-15T02:04:58;8.80;;;3.60;;
19869;SDS011;10097;50.862;4.696;2023-04-15T02:07:24;8.90;;;3.53;;
19869;SDS011;10097;50.862;4.696;2023-04-15T02:09:49;11.30;;;3.50;;
19869;SDS011;10097;50.862;4.696;2023-04-15T02:12:15;7.13;;;3.33;;
19869;SDS011;10097;50.862;4.696;2023-04-15T02:14:41;9.80;;;3.37;;
19869;SDS011;10097;50.862;4.696;2023-04-15T02:17:06;9.83;;;3.27;;
19869;SDS011;10097;50.862;4.696;2023-04-15T02:19:35;12.37;;;3.60;;
19869;SDS011;10097;50.862;4.696;2023-04-15T02:22:01;11.07;;;4.13;;
19869;SDS011;10097;50.862;4.696;2023-04-15T02:24:30;8.70;;;3.33;;
19869;SDS011;10097;50.862;4.696;2023-04-15T02:26:55;9.40;;;3.73;;
19869;SDS011;10097;50.862;4.696;2023-04-15T02:29:21;8.90;;;4.20;;
19869;SDS011;10097;50.862;4.696;2023-04-15T02:31:47;11.70;;;3.67;;
19869;SDS011;10097;50.862;4.696;2023-04-15T02:34:13;11.27;;;4.20;;
19869;SDS011;10097;50.862;4.696;2023-04-15T02:36:39;12.43;;;4.40;;
19869;SDS011;10097;50.862;4.696;2023-04-15T02:39:05;12.27;;;3.87;;
19869;SDS011;10097;50.862;4.696;2023-04-15T02:41:31;9.10;;;3.70;;
19869;SDS011;10097;50.862;4.696;2023-04-15T02:43:57;10.27;;;3.50;;
19869;SDS011;10097;50.862;4.696;2023-04-15T02:46:22;13.60;;;4.23;;
19869;SDS011;10097;50.862;4.696;2023-04-15T02:48:48;10.73;;;3.67;;
19869;SDS011;10097;50.862;4.696;2023-04-15T02:51:15;12.67;;;3.97;;
19869;SDS011;10097;50.862;4.696;2023-04-15T02:53:44;9.77;;;4.00;;
19869;SDS011;10097;50.862;4.696;2023-04-15T02:56:10;11.23;;;3.90;;
19869;SDS011;10097;50.862;4.696;2023-04-15T02:58:36;9.90;;;4.10;;
19869;SDS011;10097;50.862;4.696;2023-04-15T03:01:03;7.77;;;3.37;;
19869;SDS011;10097;50.862;4.696;2023-04-15T03:03:29;8.63;;;3.43;;
19869;SDS011;10097;50.862;4.696;2023-04-15T03:05:55;11.10;;;3.50;;
19869;SDS011;10097;50.862;4.696;2023-04-15T03:08:20;9.57;;;4.00;;
19869;SDS011;10097;50.862;4.696;2023-04-15T03:10:46;12.60;;;3.60;;
19869;SDS011;10097;50.862;4.696;2023-04-15T03:13:12;8.10;;;3.10;;
19869;SDS011;10097;50.862;4.696;2023-04-15T03:15:38;9.90;;;3.63;;
19869;SDS011;10097;50.862;4.696;2023-04-15T03:18:03;8.13;;;3.37;;
19869;SDS011;10097;50.862;4.696;2023-04-15T03:20:29;9.97;;;3.70;;
19869;SDS011;10097;50.862;4.696;2023-04-15T03:22:55;10.43;;;3.60;;
19869;SDS011;10097;50.862;4.696;2023-04-15T03:25:21;10.40;;;3.50;;
19869;SDS011;10097;50.862;4.696;2023-04-15T03:27:46;13.17;;;4.07;;
19869;SDS011;10097;50.862;4.696;2023-04-15T03:30:12;8.73;;;3.40;;
19869;SDS011;10097;50.862;4.696;2023-04-15T03:32:38;8.17;;;3.10;;
19869;SDS011;10097;50.862;4.696;2023-04-15T03:35:04;8.57;;;3.53;;
19869;SDS011;10097;50.862;4.696;2023-04-15T03:37:30;8.70;;;3.37;;
19869;SDS011;10097;50.862;4.696;2023-04-15T03:39:56;8.83;;;3.10;;
19869;SDS011;10097;50.862;4.696;2023-04-15T03:42:22;9.33;;;3.27;;
19869;SDS011;10097;50.862;4.696;2023-04-15T03:44:47;12.97;;;3.70;;
19869;SDS011;10097;50.862;4.696;2023-04-15T03:47:13;9.07;;;3.53;;
19869;SDS011;10097;50.862;4.696;2023-04-15T03:49:39;8.93;;;3.30;;
19869;SDS011;10097;50.862;4.696;2023-04-15T03:52:05;8.83;;;3.53;;
19869;SDS011;10097;50.862;4.696;2023-04-15T03:54:31;12.57;;;3.93;;
19869;SDS011;10097;50.862;4.696;2023-04-15T03:56:56;9.70;;;3.60;;
19869;SDS011;10097;50.862;4.696;2023-04-15T03:59:22;10.87;;;3.40;;
19869;SDS011;10097;50.862;4.696;2023-04-15T04:01:48;10.40;;;3.53;;
19869;SDS011;10097;50.862;4.696;2023-04-15T04:04:16;10.70;;;3.63;;
19869;SDS011;10097;50.862;4.696;2023-04-15T04:06:43;9.23;;;3.70;;
19869;SDS011;10097;50.862;4.696;2023-04-15T04:09:09;9.93;;;3.60;;
19869;SDS011;10097;50.862;4.696;2023-04-15T04:11:34;11.57;;;3.80;;
19869;SDS011;10097;50.862;4.696;2023-04-15T04:14:01;12.03;;;4.40;;
19869;SDS011;10097;50.862;4.696;2023-04-15T04:16:27;12.53;;;4.70;;
19869;SDS011;10097;50.862;4.696;2023-04-15T04:18:52;10.77;;;4.37;;
19869;SDS011;10097;50.862;4.696;2023-04-15T04:21:18;14.67;;;4.50;;
19869;SDS011;10097;50.862;4.696;2023-04-15T04:23:45;10.23;;;4.70;;
19869;SDS011;10097;50.862;4.696;2023-04-15T04:26:11;13.43;;;5.27;;
19869;SDS011;10097;50.862;4.696;2023-04-15T04:28:36;9.43;;;4.80;;
19869;SDS011;10097;50.862;4.696;2023-04-15T04:31:05;13.30;;;5.10;;
19869;SDS011;10097;50.862;4.696;2023-04-15T04:33:31;11.00;;;4.60;;
19869;SDS011;10097;50.862;4.696;2023-04-15T04:35:57;11.63;;;4.57;;
19869;SDS011;10097;50.862;4.696;2023-04-15T04:38:23;11.13;;;4.40;;
19869;SDS011;10097;50.862;4.696;2023-04-15T04:40:48;12.37;;;4.60;;
19869;SDS011;10097;50.862;4.696;2023-04-15T04:43:14;10.90;;;4.53;;
19869;SDS011;10097;50.862;4.696;2023-04-15T04:45:40;12.07;;;4.57;;
19869;SDS011;10097;50.862;4.696;2023-04-15T04:48:06;10.00;;;4.07;;
19869;SDS011;10097;50.862;4.696;2023-04-15T04:50:34;10.00;;;4.30;;
19869;SDS011;10097;50.862;4.696;2023-04-15T04:53:00;11.27;;;4.40;;
19869;SDS011;10097;50.862;4.696;2023-04-15T04:55:26;11.13;;;4.43;;
19869;SDS011;10097;50.862;4.696;2023-04-15T04:57:53;17.83;;;4.50;;
19869;SDS011;10097;50.862;4.696;2023-04-15T05:00:18;17.30;;;6.30;;
19869;SDS011;10097;50.862;4.696;2023-04-15T05:02:44;14.33;;;4.90;;
19869;SDS011;10097;50.862;4.696;2023-04-15T05:05:10;10.90;;;5.00;;
19869;SDS011;10097;50.862;4.696;2023-04-15T05:07:36;12.93;;;5.30;;
19869;SDS011;10097;50.862;4.696;2023-04-15T05:10:02;12.77;;;5.50;;
19869;SDS011;10097;50.862;4.696;2023-04-15T05:12:28;10.63;;;4.73;;
19869;SDS011;10097;50.862;4.696;2023-04-15T05:14:54;9.33;;;4.60;;
19869;SDS011;10097;50.862;4.696;2023-04-15T05:17:20;10.90;;;4.07;;
19869;SDS011;10097;50.862;4.696;2023-04-15T05:19:46;14.60;;;4.53;;
19869;SDS011;10097;50.862;4.696;2023-04-15T05:22:11;12.53;;;4.80;;
19869;SDS011;10097;50.862;4.696;2023-04-15T05:24:37;10.67;;;3.93;;
19869;SDS011;10097;50.862;4.696;2023-04-15T05:27:02;11.33;;;3.93;;
19869;SDS011;10097;50.862;4.696;2023-04-15T05:29:28;13.50;;;4.60;;
19869;SDS011;10097;50.862;4.696;2023-04-15T05:31:54;9.70;;;4.37;;
19869;SDS011;10097;50.862;4.696;2023-04-15T05:34:20;11.97;;;4.33;;
19869;SDS011;10097;50.862;4.696;2023-04-15T05:36:46;12.37;;;4.40;;
19869;SDS011;10097;50.862;4.696;2023-04-15T05:39:12;14.47;;;4.73;;
19869;SDS011;10097;50.862;4.696;2023-04-15T05:41:38;13.47;;;4.20;;
19869;SDS011;10097;50.862;4.696;2023-04-15T05:44:04;13.77;;;4.57;;
19869;SDS011;10097;50.862;4.696;2023-04-15T05:46:30;12.77;;;5.17;;
19869;SDS011;10097;50.862;4.696;2023-04-15T05:48:55;14.17;;;4.63;;
19869;SDS011;10097;50.862;4.696;2023-04-15T05:51:21;13.83;;;4.27;;
19869;SDS011;10097;50.862;4.696;2023-04-15T05:53:47;14.33;;;4.40;;
19869;SDS011;10097;50.862;4.696;2023-04-15T05:56:12;9.93;;;3.90;;
19869;SDS011;10097;50.862;4.696;2023-04-15T05:58:38;10.87;;;4.47;;
19869;SDS011;10097;50.862;4.696;2023-04-15T06:01:03;10.70;;;4.20;;
19869;SDS011;10097;50.862;4.696;2023-04-15T06:03:29;12.67;;;4.90;;
19869;SDS011;10097;50.862;4.696;2023-04-15T06:05:55;11.73;;;4.87;;
19869;SDS011;10097;50.862;4.696;2023-04-15T06:08:21;11.30;;;4.13;;
19869;SDS011;10097;50.862;4.696;2023-04-15T06:10:46;10.07;;;4.10;;
19869;SDS011;10097;50.862;4.696;2023-04-15T06:13:12;12.73;;;4.57;;
19869;SDS011;10097;50.862;4.696;2023-04-15T06:15:38;11.63;;;5.20;;
19869;SDS011;10097;50.862;4.696;2023-04-15T06:18:04;12.30;;;4.80;;
19869;SDS011;10097;50.862;4.696;2023-04-15T06:20:29;16.07;;;5.87;;
19869;SDS011;10097;50.862;4.696;2023-04-15T06:22:55;13.67;;;4.83;;
19869;SDS011;10097;50.862;4.696;2023-04-15T06:25:21;11.60;;;5.10;;
19869;SDS011;10097;50.862;4.696;2023-04-15T06:27:48;13.47;;;5.40;;
19869;SDS011;10097;50.862;4.696;2023-04-15T06:30:13;13.00;;;4.47;;
19869;SDS011;10097;50.862;4.696;2023-04-15T06:32:39;11.13;;;4.53;;
19869;SDS011;10097;50.862;4.696;2023-04-15T06:35:05;12.43;;;4.23;;
19869;SDS011;10097;50.862;4.696;2023-04-15T06:37:31;13.30;;;4.97;;
19869;SDS011;10097;50.862;4.696;2023-04-15T06:39:56;13.13;;;4.70;;
19869;SDS011;10097;50.862;4.696;2023-04-15T06:42:22;12.27;;;5.33;;
19869;SDS011;10097;50.862;4.696;2023-04-15T06:44:48;16.23;;;5.80;;
19869;SDS011;10097;50.862;4.696;2023-04-15T06:47:14;14.70;;;4.83;;
19869;SDS011;10097;50.862;4.696;2023-04-15T06:49:46;11.67;;;5.03;;
19869;SDS011;10097;50.862;4.696;2023-04-15T06:52:11;14.20;;;5.80;;
19869;SDS011;10097;50.862;4.696;2023-04-15T06:54:37;14.97;;;4.80;;
19869;SDS011;10097;50.862;4.696;2023-04-15T06:57:03;16.23;;;6.23;;
19869;SDS011;10097;50.862;4.696;2023-04-15T06:59:28;16.80;;;5.83;;
19869;SDS011;10097;50.862;4.696;2023-04-15T07:01:54;15.97;;;5.47;;
19869;SDS011;10097;50.862;4.696;2023-04-15T07:04:20;17.40;;;5.40;;
19869;SDS011;10097;50.862;4.696;2023-04-15T07:06:45;15.77;;;5.53;;
19869;SDS011;10097;50.862;4.696;2023-04-15T07:09:11;17.87;;;5.37;;
19869;SDS011;10097;50.862;4.696;2023-04-15T07:11:37;11.90;;;4.87;;
19869;SDS011;10097;50.862;4.696;2023-04-15T07:14:02;14.67;;;5.50;;
19869;SDS011;10097;50.862;4.696;2023-04-15T07:16:28;13.70;;;5.53;;
19869;SDS011;10097;50.862;4.696;2023-04-15T07:18:54;15.93;;;5.03;;
19869;SDS011;10097;50.862;4.696;2023-04-15T07:21:20;13.67;;;5.40;;
19869;SDS011;10097;50.862;4.696;2023-04-15T07:23:45;20.33;;;5.93;;
19869;SDS011;10097;50.862;4.696;2023-04-15T07:26:11;20.67;;;5.87;;
19869;SDS011;10097;50.862;4.696;2023-04-15T07:28:37;18.63;;;5.53;;
19869;SDS011;10097;50.862;4.696;2023-04-15T07:31:02;17.50;;;4.77;;
19869;SDS011;10097;50.862;4.696;2023-04-15T07:33:28;13.30;;;4.90;;
19869;SDS011;10097;50.862;4.696;2023-04-15T07:35:54;13.90;;;5.13;;
19869;SDS011;10097;50.862;4.696;2023-04-15T07:38:19;14.93;;;5.43;;
19869;SDS011;10097;50.862;4.696;2023-04-15T07:40:45;13.03;;;5.07;;
19869;SDS011;10097;50.862;4.696;2023-04-15T07:43:12;13.07;;;4.83;;
19869;SDS011;10097;50.862;4.696;2023-04-15T07:45:38;16.30;;;5.40;;
19869;SDS011;10097;50.862;4.696;2023-04-15T07:48:04;13.73;;;5.40;;
19869;SDS011;10097;50.862;4.696;2023-04-15T07:50:30;14.00;;;6.10;;
19869;SDS011;10097;50.862;4.696;2023-04-15T07:52:56;17.47;;;5.30;;
19869;SDS011;10097;50.862;4.696;2023-04-15T07:55:22;11.97;;;5.50;;
19869;SDS011;10097;50.862;4.696;2023-04-15T07:57:48;14.30;;;5.60;;
19869;SDS011;10097;50.862;4.696;2023-04-15T08:00:14;12.60;;;5.10;;
19869;SDS011;10097;50.862;4.696;2023-04-15T08:02:40;16.97;;;5.13;;
19869;SDS011;10097;50.862;4.696;2023-04-15T08:05:07;13.73;;;4.80;;
19869;SDS011;10097;50.862;4.696;2023-04-15T08:07:35;14.23;;;4.60;;
19869;SDS011;10097;50.862;4.696;2023-04-15T08:10:01;15.20;;;5.30;;
19869;SDS011;10097;50.862;4.696;2023-04-15T08:12:27;16.77;;;4.60;;
19869;SDS011;10097;50.862;4.696;2023-04-15T08:14:53;13.03;;;4.13;;
19869;SDS011;10097;50.862;4.696;2023-04-15T08:17:21;13.40;;;4.27;;
19869;SDS011;10097;50.862;4.696;2023-04-15T08:19:47;11.80;;;4.37;;
19869;SDS011;10097;50.862;4.696;2023-04-15T08:22:13;15.80;;;4.90;;
19869;SDS011;10097;50.862;4.696;2023-04-15T08:24:39;13.73;;;5.03;;
19869;SDS011;10097;50.862;4.696;2023-04-15T08:27:05;13.77;;;4.10;;
19869;SDS011;10097;50.862;4.696;2023-04-15T08:29:32;13.07;;;4.60;;
19869;SDS011;10097;50.862;4.696;2023-04-15T08:32:00;13.43;;;5.00;;
19869;SDS011;10097;50.862;4.696;2023-04-15T08:34:26;13.90;;;4.37;;
19869;SDS011;10097;50.862;4.696;2023-04-15T08:36:53;14.47;;;5.03;;
19869;SDS011;10097;50.862;4.696;2023-04-15T08:39:19;15.47;;;4.90;;
19869;SDS011;10097;50.862;4.696;2023-04-15T08:41:46;15.37;;;4.67;;
19869;SDS011;10097;50.862;4.696;2023-04-15T08:44:25;17.37;;;5.07;;
19869;SDS011;10097;50.862;4.696;2023-04-15T08:46:55;16.67;;;5.43;;
19869;SDS011;10097;50.862;4.696;2023-04-15T08:49:22;15.80;;;4.70;;
19869;SDS011;10097;50.862;4.696;2023-04-15T08:51:52;14.67;;;5.43;;
19869;SDS011;10097;50.862;4.696;2023-04-15T08:54:20;14.40;;;4.90;;
19869;SDS011;10097;50.862;4.696;2023-04-15T08:56:46;12.00;;;5.30;;
19869;SDS011;10097;50.862;4.696;2023-04-15T08:59:13;13.30;;;5.30;;
19869;SDS011;10097;50.862;4.696;2023-04-15T09:01:40;18.60;;;5.23;;
19869;SDS011;10097;50.862;4.696;2023-04-15T09:04:06;13.70;;;5.70;;
19869;SDS011;10097;50.862;4.696;2023-04-15T09:06:32;14.13;;;5.67;;
19869;SDS011;10097;50.862;4.696;2023-04-15T09:08:58;15.20;;;5.47;;
19869;SDS011;10097;50.862;4.696;2023-04-15T09:11:24;12.13;;;5.50;;
19869;SDS011;10097;50.862;4.696;2023-04-15T09:13:51;15.47;;;6.43;;
19869;SDS011;10097;50.862;4.696;2023-04-15T09:16:16;12.50;;;5.93;;
19869;SDS011;10097;50.862;4.696;2023-04-15T09:18:44;14.00;;;6.27;;
19869;SDS011;10097;50.862;4.696;2023-04-15T09:21:14;14.63;;;6.60;;
19869;SDS011;10097;50.862;4.696;2023-04-15T09:23:52;13.77;;;5.80;;
19869;SDS011;10097;50.862;4.696;2023-04-15T09:26:42;18.90;;;6.70;;
19869;SDS011;10097;50.862;4.696;2023-04-15T09:29:07;13.60;;;5.87;;
19869;SDS011;10097;50.862;4.696;2023-04-15T09:31:37;13.20;;;5.77;;
19869;SDS011;10097;50.862;4.696;2023-04-15T09:34:04;15.67;;;6.03;;
19869;SDS011;10097;50.862;4.696;2023-04-15T09:39:11;10.27;;;4.90;;
19869;SDS011;10097;50.862;4.696;2023-04-15T09:41:38;11.40;;;5.43;;
19869;SDS011;10097;50.862;4.696;2023-04-15T09:44:04;14.67;;;5.10;;
19869;SDS011;10097;50.862;4.696;2023-04-15T09:46:39;10.40;;;4.47;;
19869;SDS011;10097;50.862;4.696;2023-04-15T09:49:06;12.87;;;5.10;;
19869;SDS011;10097;50.862;4.696;2023-04-15T09:51:33;10.70;;;5.17;;
19869;SDS011;10097;50.862;4.696;2023-04-15T09:53:59;11.70;;;4.80;;
19869;SDS011;10097;50.862;4.696;2023-04-15T09:56:31;12.50;;;4.87;;
19869;SDS011;10097;50.862;4.696;2023-04-15T09:59:06;11.30;;;4.37;;
19869;SDS011;10097;50.862;4.696;2023-04-15T10:01:33;10.73;;;4.20;;
19869;SDS011;10097;50.862;4.696;2023-04-15T10:04:01;9.73;;;4.00;;
19869;SDS011;10097;50.862;4.696;2023-04-15T10:06:28;10.48;;;3.40;;
19869;SDS011;10097;50.862;4.696;2023-04-15T10:08:55;8.37;;;3.60;;
19869;SDS011;10097;50.862;4.696;2023-04-15T10:11:22;8.82;;;3.55;;
19869;SDS011;10097;50.862;4.696;2023-04-15T10:13:49;8.85;;;3.80;;
19869;SDS011;10097;50.862;4.696;2023-04-15T10:16:15;11.55;;;3.88;;
19869;SDS011;10097;50.862;4.696;2023-04-15T10:18:45;7.50;;;3.67;;
19869;SDS011;10097;50.862;4.696;2023-04-15T10:21:12;7.03;;;3.53;;
19869;SDS011;10097;50.862;4.696;2023-04-15T10:23:42;9.32;;;3.95;;
19869;SDS011;10097;50.862;4.696;2023-04-15T10:26:11;8.98;;;2.90;;
19869;SDS011;10097;50.862;4.696;2023-04-15T10:28:38;9.23;;;2.63;;
19869;SDS011;10097;50.862;4.696;2023-04-15T10:31:05;6.40;;;2.47;;
19869;SDS011;10097;50.862;4.696;2023-04-15T10:33:31;6.72;;;2.58;;
19869;SDS011;10097;50.862;4.696;2023-04-15T10:35:59;7.03;;;2.67;;
19869;SDS011;10097;50.862;4.696;2023-04-15T10:38:37;5.22;;;2.50;;
19869;SDS011;10097;50.862;4.696;2023-04-15T10:46:18;7.13;;;2.65;;
19869;SDS011;10097;50.862;4.696;2023-04-15T10:48:49;8.90;;;2.78;;
19869;SDS011;10097;50.862;4.696;2023-04-15T10:51:25;7.05;;;2.50;;
19869;SDS011;10097;50.862;4.696;2023-04-15T10:53:55;6.68;;;2.20;;
19869;SDS011;10097;50.862;4.696;2023-04-15T10:56:24;5.03;;;2.28;;
19869;SDS011;10097;50.862;4.696;2023-04-15T10:58:50;9.05;;;2.45;;
19869;SDS011;10097;50.862;4.696;2023-04-15T11:01:16;6.82;;;2.47;;
19869;SDS011;10097;50.862;4.696;2023-04-15T11:03:45;8.25;;;3.38;;
19869;SDS011;10097;50.862;4.696;2023-04-15T11:06:10;6.88;;;2.83;;
19869;SDS011;10097;50.862;4.696;2023-04-15T11:08:52;7.93;;;2.28;;
19869;SDS011;10097;50.862;4.696;2023-04-15T11:11:20;6.82;;;3.13;;
19869;SDS011;10097;50.862;4.696;2023-04-15T11:13:46;8.75;;;3.13;;
19869;SDS011;10097;50.862;4.696;2023-04-15T11:16:13;8.93;;;3.30;;
19869;SDS011;10097;50.862;4.696;2023-04-15T11:18:39;7.75;;;2.83;;
19869;SDS011;10097;50.862;4.696;2023-04-15T11:21:05;6.35;;;2.83;;
19869;SDS011;10097;50.862;4.696;2023-04-15T11:26:03;6.43;;;2.30;;
19869;SDS011;10097;50.862;4.696;2023-04-15T11:28:33;6.28;;;2.40;;
19869;SDS011;10097;50.862;4.696;2023-04-15T11:31:07;8.43;;;2.60;;
19869;SDS011;10097;50.862;4.696;2023-04-15T11:33:35;5.50;;;2.65;;
19869;SDS011;10097;50.862;4.696;2023-04-15T11:36:02;7.22;;;2.95;;
19869;SDS011;10097;50.862;4.696;2023-04-15T11:38:28;5.22;;;2.20;;
19869;SDS011;10097;50.862;4.696;2023-04-15T11:40:55;6.40;;;2.30;;
19869;SDS011;10097;50.862;4.696;2023-04-15T11:43:21;6.22;;;2.15;;
19869;SDS011;10097;50.862;4.696;2023-04-15T11:45:49;7.82;;;1.95;;
19869;SDS011;10097;50.862;4.696;2023-04-15T11:48:24;7.90;;;1.83;;
19869;SDS011;10097;50.862;4.696;2023-04-15T11:50:54;6.82;;;2.15;;
19869;SDS011;10097;50.862;4.696;2023-04-15T11:53:22;5.20;;;2.03;;
19869;SDS011;10097;50.862;4.696;2023-04-15T11:55:52;3.67;;;1.83;;
19869;SDS011;10097;50.862;4.696;2023-04-15T11:58:19;5.32;;;2.42;;
19869;SDS011;10097;50.862;4.696;2023-04-15T12:00:53;9.15;;;2.53;;
19869;SDS011;10097;50.862;4.696;2023-04-15T12:03:24;6.88;;;2.33;;
19869;SDS011;10097;50.862;4.696;2023-04-15T12:11:20;6.55;;;2.20;;
19869;SDS011;10097;50.862;4.696;2023-04-15T12:14:02;4.90;;;1.80;;
19869;SDS011;10097;50.862;4.696;2023-04-15T12:16:29;8.88;;;2.35;;
19869;SDS011;10097;50.862;4.696;2023-04-15T12:18:56;7.22;;;2.70;;
19869;SDS011;10097;50.862;4.696;2023-04-15T12:21:26;6.15;;;2.13;;
19869;SDS011;10097;50.862;4.696;2023-04-15T12:24:00;7.38;;;2.10;;
19869;SDS011;10097;50.862;4.696;2023-04-15T12:26:27;8.88;;;2.20;;
19869;SDS011;10097;50.862;4.696;2023-04-15T12:29:00;4.18;;;1.85;;
19869;SDS011;10097;50.862;4.696;2023-04-15T12:31:27;6.18;;;1.98;;
19869;SDS011;10097;50.862;4.696;2023-04-15T12:33:56;7.03;;;2.25;;
19869;SDS011;10097;50.862;4.696;2023-04-15T12:36:23;3.85;;;1.55;;
19869;SDS011;10097;50.862;4.696;2023-04-15T12:38:49;5.10;;;1.60;;
19869;SDS011;10097;50.862;4.696;2023-04-15T12:41:15;4.07;;;1.50;;
19869;SDS011;10097;50.862;4.696;2023-04-15T12:43:40;4.00;;;1.27;;
19869;SDS011;10097;50.862;4.696;2023-04-15T12:46:08;4.70;;;1.40;;
19869;SDS011;10097;50.862;4.696;2023-04-15T12:48:34;4.55;;;1.60;;
19869;SDS011;10097;50.862;4.696;2023-04-15T12:51:00;5.35;;;1.30;;
19869;SDS011;10097;50.862;4.696;2023-04-15T12:53:26;2.40;;;1.00;;
19869;SDS011;10097;50.862;4.696;2023-04-15T12:55:52;4.95;;;1.40;;
19869;SDS011;10097;50.862;4.696;2023-04-15T12:58:18;5.53;;;0.95;;
19869;SDS011;10097;50.862;4.696;2023-04-15T13:00:45;2.88;;;1.20;;
19869;SDS011;10097;50.862;4.696;2023-04-15T13:03:11;4.38;;;1.50;;
19869;SDS011;10097;50.862;4.696;2023-04-15T13:05:37;3.72;;;1.65;;
19869;SDS011;10097;50.862;4.696;2023-04-15T13:08:04;4.88;;;1.50;;
19869;SDS011;10097;50.862;4.696;2023-04-15T13:10:30;5.47;;;1.50;;
19869;SDS011;10097;50.862;4.696;2023-04-15T13:12:56;5.78;;;1.52;;
19869;SDS011;10097;50.862;4.696;2023-04-15T13:15:22;6.13;;;1.92;;
19869;SDS011;10097;50.862;4.696;2023-04-15T13:17:48;5.60;;;1.65;;
19869;SDS011;10097;50.862;4.696;2023-04-15T13:20:14;5.10;;;1.60;;
19869;SDS011;10097;50.862;4.696;2023-04-15T13:22:40;5.15;;;1.60;;
19869;SDS011;10097;50.862;4.696;2023-04-15T13:25:05;5.45;;;1.40;;
19869;SDS011;10097;50.862;4.696;2023-04-15T13:27:34;4.93;;;2.00;;
19869;SDS011;10097;50.862;4.696;2023-04-15T13:30:00;3.95;;;1.23;;
19869;SDS011;10097;50.862;4.696;2023-04-15T13:32:25;5.07;;;1.70;;
19869;SDS011;10097;50.862;4.696;2023-04-15T13:34:51;5.43;;;1.80;;
19869;SDS011;10097;50.862;4.696;2023-04-15T13:37:21;4.15;;;1.50;;
19869;SDS011;10097;50.862;4.696;2023-04-15T13:39:51;9.23;;;1.30;;
19869;SDS011;10097;50.862;4.696;2023-04-15T13:42:17;4.70;;;1.17;;
19869;SDS011;10097;50.862;4.696;2023-04-15T13:44:43;6.30;;;1.90;;
19869;SDS011;10097;50.862;4.696;2023-04-15T13:47:08;4.35;;;1.30;;
19869;SDS011;10097;50.862;4.696;2023-04-15T13:49:37;5.57;;;1.42;;
19869;SDS011;10097;50.862;4.696;2023-04-15T13:52:02;4.85;;;1.70;;
19869;SDS011;10097;50.862;4.696;2023-04-15T13:54:28;4.72;;;1.50;;
19869;SDS011;10097;50.862;4.696;2023-04-15T13:56:54;6.07;;;1.80;;
19869;SDS011;10097;50.862;4.696;2023-04-15T13:59:21;4.25;;;1.60;;
19869;SDS011;10097;50.862;4.696;2023-04-15T14:01:46;4.28;;;1.65;;
19869;SDS011;10097;50.862;4.696;2023-04-15T14:04:12;7.43;;;1.88;;
19869;SDS011;10097;50.862;4.696;2023-04-15T14:06:38;7.07;;;2.00;;
19869;SDS011;10097;50.862;4.696;2023-04-15T14:09:04;7.50;;;2.00;;
19869;SDS011;10097;50.862;4.696;2023-04-15T14:11:29;3.40;;;1.70;;
19869;SDS011;10097;50.862;4.696;2023-04-15T14:13:55;5.82;;;1.55;;
19869;SDS011;10097;50.862;4.696;2023-04-15T14:16:21;4.75;;;1.50;;
19869;SDS011;10097;50.862;4.696;2023-04-15T14:18:47;4.78;;;1.60;;
19869;SDS011;10097;50.862;4.696;2023-04-15T14:21:14;4.88;;;1.65;;
19869;SDS011;10097;50.862;4.696;2023-04-15T14:23:43;4.40;;;1.90;;
19869;SDS011;10097;50.862;4.696;2023-04-15T14:26:08;6.03;;;1.30;;
19869;SDS011;10097;50.862;4.696;2023-04-15T14:28:34;5.35;;;1.27;;
19869;SDS011;10097;50.862;4.696;2023-04-15T14:31:02;10.40;;;1.58;;
19869;SDS011;10097;50.862;4.696;2023-04-15T14:33:27;6.90;;;1.17;;
19869;SDS011;10097;50.862;4.696;2023-04-15T14:35:53;5.15;;;1.27;;
19869;SDS011;10097;50.862;4.696;2023-04-15T14:38:19;7.05;;;1.10;;
19869;SDS011;10097;50.862;4.696;2023-04-15T14:40:46;5.80;;;1.20;;
19869;SDS011;10097;50.862;4.696;2023-04-15T14:43:12;7.07;;;1.42;;
19869;SDS011;10097;50.862;4.696;2023-04-15T14:45:38;7.53;;;1.40;;
19869;SDS011;10097;50.862;4.696;2023-04-15T14:48:05;8.77;;;1.45;;
19869;SDS011;10097;50.862;4.696;2023-04-15T14:50:33;3.88;;;1.02;;
19869;SDS011;10097;50.862;4.696;2023-04-15T14:52:59;3.63;;;1.10;;